Tiempo atmosférico en la estación meteorológica de Torrecilla De Los Angeles, Cáceres (462 m.)



Fecha
DESCASC
Temp. máxima en grados centígrados (hora)
DESCASC
Temp. mínima en grados centígrados (hora)
DESCASC
Temp. media en grados centígrados
DESCASC
Racha de viento máxima en m/sg (hora)
DESCASC
Velocidad máxima media en intervalos de 10 minutos(hora)
DESCASC
Precipitaciones diarias en mm
DESCASC
Precipitaciones de 00:00 a 06:00 en mm
DESCASC
Precipitaciones de 06:00 a 12:00 en mm
DESCASC
Precipitaciones de 12:00 a 18:00 en mm
DESCASC
Precipitaciones de 18:00 a 24:00 en mm
DESCASC
05-12-2019 15 (14:50) 5 (01:50) 10 8.06 (06:40) 4.17 (23:00) 0 0 0 0 0
04-12-2019 12.8 (16:30) 3.1 (08:30) 8 7.78 (22:50) 4.72 (23:10) 0 0 0 0 0
03-12-2019 -- (--) -- (--) -- -- (--) -- (--) -- 0 -- 0 0
02-12-2019 12.4 (14:20) 6.9 (00:00) 9.6 14.72 (13:00) 6.39 (15:30) 0 0 0 0 0
01-12-2019 12.5 (12:50) 3 (00:00) 7.8 7.78 (07:10) 4.72 (07:10) 18.2 5.2 9.2 3.8 0
30-11-2019 14.1 (16:00) 3.6 (00:00) 8.9 10.83 (17:50) 5.83 (17:50) 12.2 0.4 3.8 7.4 0.6
29-11-2019 14.2 (16:40) 12.8 (00:00) 13.5 5.56 (00:10) 2.78 (11:20) 14.4 3.6 6.4 3.2 1.2
28-11-2019 13.2 (16:50) 6.4 (00:00) 9.8 5.28 (14:40) 2.78 (13:00) 11.4 0.4 8.2 2.8 0
27-11-2019 13.6 (15:20) 6.4 (00:00) 10 6.94 (15:50) 3.89 (15:00) 0.2 0.2 0 0 0
26-11-2019 14.1 (17:40) 9.6 (00:00) 11.9 9.17 (15:50) 5 (15:50) 28.6 2.8 6.2 17.6 2
25-11-2019 16.7 (15:30) 8.9 (00:00) 12.8 6.39 (15:40) 3.89 (13:20) 3.4 3.2 0.2 0 0
24-11-2019 13.2 (14:00) 3.7 (00:00) 8.4 10 (00:40) 4.72 (00:40) 2.8 0 0 0 2.8
23-11-2019 13.7 (14:50) 6.7 (00:00) 10.2 16.67 (02:20) 6.39 (01:50) 0.4 0.4 0 0 0
22-11-2019 15.3 (15:20) 9.2 (00:00) 12.3 12.22 (15:20) 6.67 (15:20) 36.6 5.4 27.2 3.4 0.6
21-11-2019 13.6 (15:40) 6.6 (00:00) 10.1 4.72 (15:50) 2.78 (13:50) 7 5.2 1.2 0 0.6
20-11-2019 7.3 (15:50) 6 (00:00) 6.7 4.72 (12:30) 2.22 (09:00) 17.4 2 12.2 2.6 0.6
19-11-2019 11.1 (13:50) 0.6 (00:00) 5.9 3.61 (00:30) 1.94 (00:30) 0 0 0 0 0
18-11-2019 14.4 (15:10) 2 (00:00) 8.2 17.22 (04:00) 9.72 (04:00) 0 0 0 0 0
17-11-2019 9.4 (19:50) 2 (00:00) 5.7 9.44 (19:50) 4.44 (20:50) 3.6 0.6 1 0.6 1.4
16-11-2019 11.3 (15:00) 0.1 (00:00) 5.7 12.22 (02:10) 7.22 (02:10) 0 0 0 0 0
15-11-2019 9.7 (13:20) 5.1 (00:00) 7.4 17.22 (09:00) 8.33 (04:30) 0 0 0 0 0
14-11-2019 11.4 (14:10) 6.6 (00:00) 9 19.72 (17:40) 9.72 (17:50) 5.6 2.8 2.2 0.6 0
13-11-2019 19.2 (15:00) 10.9 (00:00) 15.1 16.39 (23:40) 8.33 (23:30) 1.8 1.8 0 0 0
12-11-2019 15.1 (15:10) 7.5 (00:00) 11.3 16.39 (09:40) 9.72 (09:40) 0 0 0 0 0
11-11-2019 15.7 (15:00) 8.3 (08:00) 12 14.72 (20:30) 7.78 (20:30) 0.4 0 0.4 0 0
10-11-2019 10.5 (11:40) 8.4 (00:00) 9.4 15.28 (12:20) 5.83 (12:10) 0.6 0 0 0.2 0.4
09-11-2019 11.4 (13:20) 2.5 (00:00) 6.9 10.28 (23:59) 4.44 (00:10) 4.4 0 0 4.4 0
08-11-2019 13.4 (14:40) 5.6 (00:00) 9.5 12.78 (03:20) 6.39 (10:30) 0 0 0 0 0

Gráficas

Temp. máximas Temp. mínimas Temp. medias Precipitaciones Rachas de viento máximas Velocidades máximas media en intervalos de 10 minutos

Datos horarios

Fecha y hora oficial Temperatura (ºC) Velocidad del viento (km/h) Dirección del viento Racha (km/h) Dirección de racha Precipitación (mm) Presión (hPa) Tendencia (hPa) Humedad (%)
2019-12-07 23:00:00 4.6 2 Norte 6 Noroeste 0 -- -- 96
2019-12-07 22:00:00 4.5 5 Noroeste 7 Norte 0 -- -- 94
2019-12-07 21:00:00 4.8 3 Norte 5 Norte 0 -- -- 93
2019-12-07 20:00:00 5.8 0 Calma 7 Este 0 -- -- 90
2019-12-07 19:00:00 7.6 3 Noroeste 8 Noroeste 0 -- -- 85
2019-12-07 18:00:00 10.2 4 Noroeste 11 Sur 0 -- -- 82
2019-12-07 17:00:00 14.3 7 Sudoeste 12 Sur 0 -- -- 65
2019-12-07 16:00:00 15.1 9 Sur 15 Sur 0 -- -- 64
2019-12-07 15:00:00 15.1 8 Sur 17 Sur 0 -- -- 65
2019-12-07 14:00:00 15 9 Sur 17 Sudeste 0 -- -- 63
2019-12-07 13:00:00 14.1 7 Sur 14 Sur 0 -- -- 67
2019-12-07 12:00:00 12.2 6 Sur 12 Sudeste 0 -- -- 73
2019-12-07 11:00:00 9.6 4 Nordeste 10 Norte 0 -- -- 81
2019-12-07 10:00:00 6.3 3 Nordeste 7 Nordeste 0 -- -- 96
2019-12-07 09:00:00 3.2 3 Nordeste 6 Nordeste 0 -- -- 96
2019-12-07 08:00:00 3.1 0 Calma 8 Noroeste 0 -- -- 97
2019-12-07 07:00:00 3.1 4 Noroeste 10 Norte 0 -- -- 96
2019-12-07 06:00:00 3.4 4 Norte 12 Norte 0 -- -- 95
2019-12-07 05:00:00 3.5 5 Norte 10 Nordeste 0 -- -- 95
2019-12-07 04:00:00 3.8 4 Norte 12 Norte 0 -- -- 95
2019-12-07 03:00:00 4.2 2 Norte 10 Noroeste 0 -- -- 96
2019-12-07 02:00:00 4.3 4 Nordeste 10 Nordeste 0 -- -- 95
2019-12-07 01:00:00 4.1 3 Norte 7 Noroeste 0 -- -- 95
2019-12-07 00:00:00 4.1 3 Norte 7 Nordeste 0 -- -- 94
2019-12-06 23:00:00 4.6 3 Nordeste 6 Noroeste 0 -- -- 94
2019-12-06 22:00:00 4.8 0 Calma 5 Nordeste 0 -- -- 93
2019-12-06 21:00:00 5.4 3 Norte 6 Noroeste 0 -- -- 93
2019-12-06 20:00:00 6.1 3 Nordeste 8 Noroeste 0 -- -- 87
2019-12-06 19:00:00 7.4 3 Norte 10 Noroeste 0 -- -- 83
2019-12-06 18:00:00 10.3 4 Noroeste 12 Noroeste 0 -- -- 76
2019-12-06 17:00:00 14.6 3 Noroeste 10 Sudoeste 0 -- -- 64
2019-12-06 16:00:00 15.4 7 Sur 18 Sur 0 -- -- 58
2019-12-06 15:00:00 16 8 Sur 17 Sur 0 -- -- 56
2019-12-06 14:00:00 15.9 7 Sudoeste 16 Sudoeste 0 -- -- 55
2019-12-06 13:00:00 14.9 7 Sudoeste 15 Sur 0 -- -- 59
2019-12-06 12:00:00 13.1 4 Sudoeste 11 Nordeste 0 -- -- 63
2019-12-06 11:00:00 9.8 6 Nordeste 14 Nordeste 0 -- -- 74
2019-12-06 10:00:00 6.3 5 Nordeste 12 Norte 0 -- -- 88
2019-12-06 09:00:00 2.9 3 Noroeste 10 Norte 0 -- -- 95
2019-12-06 08:00:00 -- -- -- -- -- -- -- -- --
2019-12-06 07:00:00 -- -- -- -- -- -- -- -- --
2019-12-06 06:00:00 -- -- -- -- -- -- -- -- --
2019-12-06 05:00:00 -- -- -- -- -- -- -- -- --
2019-12-06 04:00:00 -- -- -- -- -- -- -- -- --
2019-12-06 03:00:00 -- -- -- -- -- -- -- -- --
2019-12-06 02:00:00 -- -- -- -- -- -- -- -- --
2019-12-06 01:00:00 6.9 5 Norte 11 Norte 0 -- -- 82
2019-12-06 00:00:00 8.7 3 Noroeste 23 Nordeste 0 -- -- 75
2019-12-05 23:00:00 9.9 15 Norte 27 Norte 0 -- -- 70
2019-12-05 22:00:00 9.7 13 Norte 23 Norte 0 -- -- 73
2019-12-05 21:00:00 9.8 12 Norte 19 Nordeste 0 -- -- 71
2019-12-05 20:00:00 9.7 8 Norte 23 Norte 0 -- -- 71
2019-12-05 19:00:00 10.2 10 Norte 20 Norte 0 -- -- 69
2019-12-05 18:00:00 10.7 9 Norte 18 Noroeste 0 -- -- 68
2019-12-05 17:00:00 13.7 6 Nordeste 21 Este 0 -- -- 59
2019-12-05 16:00:00 14.8 7 Nordeste 23 Este 0 -- -- 56
2019-12-05 15:00:00 14.9 6 Nordeste 21 Nordeste 0 -- -- 55
2019-12-05 14:00:00 14.4 10 Nordeste 25 Nordeste 0 -- -- 55
2019-12-05 13:00:00 13.1 10 Nordeste 23 Este 0 -- -- 59
2019-12-05 12:00:00 11.8 9 Nordeste 22 Nordeste 0 -- -- 62
2019-12-05 11:00:00 9.6 8 Norte 28 Nordeste 0 -- -- 70
2019-12-05 10:00:00 9.6 10 Nordeste 26 Norte 0 -- -- 68
2019-12-05 09:00:00 8.2 13 Norte 27 Norte 0 -- -- 71
2019-12-05 08:00:00 7.8 7 Nordeste 24 Norte 0 -- -- 73
2019-12-05 07:00:00 7.3 9 Nordeste 29 Nordeste 0 -- -- 74
2019-12-05 06:00:00 7.2 8 Norte 19 Norte 0 -- -- 73
2019-12-05 05:00:00 6.5 7 Norte 16 Noroeste 0 -- -- 75
2019-12-05 04:00:00 6.7 3 Norte 14 Oeste 0 -- -- 77
2019-12-05 03:00:00 7.2 2 Sudoeste 12 Norte 0 -- -- 78
2019-12-05 02:00:00 5.1 0 Calma 12 Noroeste 0 -- -- 90
2019-12-05 01:00:00 -- -- -- -- -- -- -- -- --
2019-12-05 00:00:00 -- -- -- -- -- -- -- -- --
2019-12-04 23:00:00 -- -- -- -- -- -- -- -- --
2019-12-04 22:00:00 -- -- -- -- -- -- -- -- --
2019-12-04 21:00:00 -- -- -- -- -- -- -- -- --
2019-12-04 20:00:00 -- -- -- -- -- -- -- -- --
2019-12-04 19:00:00 -- -- -- -- -- -- -- -- --
2019-12-04 18:00:00 -- -- -- -- -- -- -- -- --
2019-12-04 17:00:00 -- -- -- -- -- -- -- -- --
2019-12-04 16:00:00 -- -- -- -- -- -- -- -- --
2019-12-04 15:00:00 -- -- -- -- -- -- -- -- --
2019-12-04 14:00:00 -- -- -- -- -- -- -- -- --
2019-12-04 13:00:00 -- -- -- -- -- -- -- -- --
2019-12-04 12:00:00 -- -- -- -- -- -- -- -- --
2019-12-04 11:00:00 -- -- -- -- -- -- -- -- --
2019-12-04 10:00:00 -- -- -- -- -- -- -- -- --
2019-12-04 09:00:00 -- -- -- -- -- -- -- -- --
2019-12-04 08:00:00 -- -- -- -- -- -- -- -- --
2019-12-04 07:00:00 -- -- -- -- -- -- -- -- --
2019-12-04 06:00:00 -- -- -- -- -- -- -- -- --
2019-12-04 05:00:00 -- -- -- -- -- -- -- -- --
2019-12-04 04:00:00 -- -- -- -- -- -- -- -- --
2019-12-04 03:00:00 -- -- -- -- -- -- -- -- --
2019-12-04 02:00:00 -- -- -- -- -- -- -- -- --
2019-12-04 01:00:00 -- -- -- -- -- -- -- -- --
2019-12-04 00:00:00 -- -- -- -- -- -- -- -- --
2019-12-03 23:00:00 -- -- -- -- -- -- -- -- --
2019-12-03 22:00:00 -- -- -- -- -- -- -- -- --
2019-12-03 21:00:00 -- -- -- -- -- -- -- -- --
2019-12-03 20:00:00 -- -- -- -- -- -- -- -- --
2019-12-03 19:00:00 -- -- -- -- -- -- -- -- --
2019-12-03 18:00:00 -- -- -- -- -- -- -- -- --
2019-12-03 17:00:00 -- -- -- -- -- -- -- -- --
2019-12-03 16:00:00 -- -- -- -- -- -- -- -- --
2019-12-03 15:00:00 -- -- -- -- -- -- -- -- --
2019-12-03 14:00:00 -- -- -- -- -- -- -- -- --
2019-12-03 13:00:00 -- -- -- -- -- -- -- -- --
2019-12-03 12:00:00 -- -- -- -- -- -- -- -- --
2019-12-03 11:00:00 -- -- -- -- -- -- -- -- --
2019-12-03 10:00:00 -- -- -- -- -- -- -- -- --
2019-12-03 09:00:00 4.2 7 Norte 25 Norte 0 -- -- 75
2019-12-03 08:00:00 4.3 12 Norte 28 Norte 0 -- -- 75
2019-12-03 07:00:00 2.9 8 Nordeste 17 Norte 0 -- -- 84
2019-12-03 06:00:00 3.4 6 Nordeste 18 Norte 0 -- -- 83
2019-12-03 05:00:00 4.6 10 Norte 23 Norte 0 -- -- 78
2019-12-03 04:00:00 5 10 Norte 23 Norte 0 -- -- 78
2019-12-03 03:00:00 5.6 9 Norte 19 Norte 0 -- -- 76
2019-12-03 02:00:00 6.1 6 Norte 18 Norte 0 -- -- 75
2019-12-03 01:00:00 6.9 10 Norte 24 Norte 0 -- -- 72
2019-12-03 00:00:00 7.2 8 Nordeste 26 Norte 0 -- -- 72
2019-12-02 23:00:00 8 13 Norte 28 Norte 0 -- -- 70
2019-12-02 22:00:00 8.7 13 Norte 33 Nordeste 0 -- -- 68
2019-12-02 21:00:00 9.3 11 Nordeste 31 Nordeste 0 -- -- 68
2019-12-02 20:00:00 9.3 9 Norte 23 Norte 0 -- -- 68
2019-12-02 19:00:00 9.4 11 Norte 23 Nordeste 0 -- -- 65
2019-12-02 18:00:00 10.1 9 Norte 36 Nordeste 0 -- -- 64
2019-12-02 17:00:00 11.8 18 Nordeste 51 Nordeste 0 -- -- 56
2019-12-02 16:00:00 12.4 19 Nordeste 48 Norte 0 -- -- 57
2019-12-02 15:00:00 12.3 19 Nordeste 45 Este 0 -- -- 56
2019-12-02 14:00:00 12.2 17 Nordeste 42 Este 0 -- -- 58
2019-12-02 13:00:00 11.4 22 Nordeste 53 Nordeste 0 -- -- 60
2019-12-02 12:00:00 10.8 18 Nordeste 48 Nordeste 0 -- -- 64
2019-12-02 11:00:00 9.7 19 Nordeste 47 Nordeste 0 -- -- 68
2019-12-02 10:00:00 8.7 15 Nordeste 36 Norte 0 -- -- 72
2019-12-02 09:00:00 7.2 18 Norte 38 Nordeste 0 -- -- 78
2019-12-02 08:00:00 7.4 18 Norte 44 Nordeste 0 -- -- 76
2019-12-02 07:00:00 7.5 17 Nordeste 43 Nordeste 0 -- -- 77
2019-12-02 06:00:00 7.5 8 Nordeste 27 Nordeste 0 -- -- 79
2019-12-02 05:00:00 8.3 8 Nordeste 22 Nordeste 0 -- -- 78
2019-12-02 04:00:00 8.6 11 Nordeste 26 Nordeste 0 -- -- 78
2019-12-02 03:00:00 8.3 3 Nordeste 13 Nordeste 0 -- -- 84
2019-12-02 02:00:00 8 4 Nordeste 15 Nordeste 0 -- -- 87
2019-12-02 01:00:00 7.4 4 Norte 8 Norte 0 -- -- 90
2019-12-02 00:00:00 7 0 Calma 17 Nordeste 0 -- -- 92
2019-12-01 23:00:00 7.1 5 Norte 12 Norte 0 -- -- 94
2019-12-01 22:00:00 7.3 4 Norte 15 Nordeste 0 -- -- 97
2019-12-01 21:00:00 6.2 4 Nordeste 9 Nordeste 0 -- -- 96
2019-12-01 20:00:00 6.5 3 Sudeste 9 Noroeste 0 -- -- 95
2019-12-01 19:00:00 7.6 3 Nordeste 12 Norte 0 -- -- 93
2019-12-01 18:00:00 9.4 4 Nordeste 10 Nordeste 0 -- -- 93
2019-12-01 17:00:00 9.8 2 Norte 10 Norte 0.4 -- -- 94
2019-12-01 16:00:00 10.5 6 Noroeste 10 Oeste 2.4 -- -- 89
2019-12-01 15:00:00 10.7 0 Calma 5 Nordeste 0 -- -- 92
2019-12-01 14:00:00 10.9 2 Este 10 Sur 1 -- -- 92
2019-12-01 13:00:00 12.5 8 Sudoeste 18 Sur 0 -- -- 88
2019-12-01 12:00:00 10.9 10 Sur 21 Sudeste 0 -- -- 97
2019-12-01 11:00:00 10 9 Sudoeste 15 Oeste 0 -- -- 98
2019-12-01 10:00:00 9.2 4 Sur 11 Sudoeste 1 -- -- 98
2019-12-01 09:00:00 8.9 7 Sudoeste 21 Sudoeste 3 -- -- 98
2019-12-01 08:00:00 8.8 8 Oeste 28 Sur 3.8 -- -- 98
2019-12-01 07:00:00 8.5 12 Sur 27 Sur 1.4 -- -- 99
2019-12-01 06:00:00 6.9 0 Calma 6 Nordeste 2.6 -- -- 98
2019-12-01 05:00:00 6.4 4 Norte 8 Nordeste 2 -- -- 99
2019-12-01 04:00:00 5.6 3 Norte 7 Oeste 0 -- -- 98
2019-12-01 03:00:00 4.4 4 Nordeste 9 Este 0.6 -- -- 98
2019-12-01 02:00:00 3.3 3 Norte 5 Norte 0 -- -- 97
2019-12-01 01:00:00 3.2 2 Noroeste 5 Nordeste 0 -- -- 96
2019-12-01 00:00:00 3.6 3 Norte 9 Noroeste 0 -- -- 95
2019-11-30 23:00:00 4.8 3 Nordeste 8 Norte 0 -- -- 94
2019-11-30 22:00:00 6.1 3 Nordeste 10 Noroeste 0 -- -- 92
2019-11-30 21:00:00 8.1 3 Noroeste 24 Oeste 0 -- -- 85
2019-11-30 20:00:00 10.1 10 Noroeste 30 Noroeste 0 -- -- 77
2019-11-30 19:00:00 10.4 13 Noroeste 32 Norte 0.6 -- -- 81
2019-11-30 18:00:00 10.6 18 Noroeste 39 Noroeste 1 -- -- 86
2019-11-30 17:00:00 13 6 Sudoeste 18 Sudoeste 0 -- -- 93
2019-11-30 16:00:00 14.1 9 Sudoeste 19 Oeste 0.6 -- -- 98
2019-11-30 15:00:00 13.2 14 Sur 26 Sur 2.8 -- -- 98
2019-11-30 14:00:00 13.1 13 Sur 26 Sur 0.4 -- -- 98
2019-11-30 13:00:00 12.7 6 Sur 12 Sudoeste 2.6 -- -- 98
2019-11-30 12:00:00 12.1 4 Sudoeste 25 Oeste 2 -- -- 98
2019-11-30 11:00:00 12 8 Sudoeste 26 Sudoeste 0.8 -- -- 98
2019-11-30 10:00:00 11.9 11 Sudoeste 23 Sudoeste 0 -- -- 97
2019-11-30 09:00:00 12.2 6 Sudoeste 21 Oeste 0.2 -- -- 98
2019-11-30 08:00:00 12.4 6 Sudoeste 18 Oeste 0.6 -- -- 98
2019-11-30 07:00:00 12.6 9 Sudoeste 20 Sudoeste 0.2 -- -- 98
2019-11-30 06:00:00 12.7 7 Sudoeste 15 Sudoeste 0.2 -- -- 98
2019-11-30 05:00:00 12.9 7 Sur 14 Sur 0 -- -- 98
2019-11-30 04:00:00 12.9 3 Sudoeste 20 Sudeste 0.2 -- -- 98
2019-11-30 03:00:00 13.1 3 Sur 17 Sur 0 -- -- 98
2019-11-30 02:00:00 13.3 10 Sur 20 Sur 0 -- -- 98
2019-11-30 01:00:00 13.5 6 Sur 13 Sudoeste 0 -- -- 98
2019-11-30 00:00:00 13.5 5 Sur 14 Sur 0.2 -- -- 98
2019-11-29 23:00:00 13.5 3 Sur 12 Sudoeste 0.6 -- -- 97
2019-11-29 22:00:00 13.7 4 Sur 8 Sur 0.2 -- -- 97
2019-11-29 21:00:00 13.8 0 Calma 16 Oeste 0.2 -- -- 97
2019-11-29 20:00:00 13.9 4 Oeste 10 Oeste 0 -- -- 97
2019-11-29 19:00:00 14 3 Sudoeste 12 Sur 0 -- -- 97
2019-11-29 18:00:00 14.1 7 Sudoeste 14 Sur 0.4 -- -- 98
2019-11-29 17:00:00 14.1 4 Sur 13 Sur 0.6 -- -- 98
2019-11-29 16:00:00 14.1 6 Sur 13 Sudoeste 1 -- -- 98
2019-11-29 15:00:00 14 6 Sur 13 Sudoeste 0.2 -- -- 98
2019-11-29 14:00:00 13.8 4 Sur 14 Sur 0.4 -- -- 98
2019-11-29 13:00:00 13.7 7 Sur 12 Sur 0.6 -- -- 98
2019-11-29 12:00:00 13.6 5 Sur 15 Sudoeste 1.2 -- -- 98
2019-11-29 11:00:00 13.3 8 Sudoeste 13 Sur 1.4 -- -- 98
2019-11-29 10:00:00 13 4 Sudoeste 17 Sudoeste 1.2 -- -- 98
2019-11-29 09:00:00 13 6 Sudoeste 14 Sudoeste 0.8 -- -- 98
2019-11-29 08:00:00 13 4 Sur 13 Sudoeste 0.6 -- -- 98
2019-11-29 07:00:00 13 3 Sur 18 Sur 1.2 -- -- 98
2019-11-29 06:00:00 13 5 Sur 13 Sudoeste 1.2 -- -- 98
2019-11-29 05:00:00 12.9 5 Sur 10 Sur 0.8 -- -- 97
2019-11-29 04:00:00 12.9 5 Sur 11 Sudoeste 0.4 -- -- 97
2019-11-29 03:00:00 12.8 2 Sudoeste 12 Sudoeste 0.8 -- -- 97
2019-11-29 02:00:00 12.8 5 Sudoeste 15 Sudoeste 0.4 -- -- 96
2019-11-29 01:00:00 12.9 6 Sudoeste 20 Sur 0 -- -- 95
2019-11-29 00:00:00 12.9 5 Sudoeste 15 Oeste 0 -- -- 96
2019-11-28 23:00:00 12.5 4 Sur 9 Sudeste 0 -- -- 96
2019-11-28 22:00:00 12.3 0 Calma 4 Norte 0 -- -- 95
2019-11-28 21:00:00 12.2 3 Este 8 Sudeste 0 -- -- 95
2019-11-28 20:00:00 12.5 3 Sudeste 9 Sudoeste 0 -- -- 94
2019-11-28 19:00:00 12.8 0 Calma 12 Oeste 0 -- -- 95
2019-11-28 18:00:00 12.9 4 Sur 17 Sudoeste 0 -- -- 95
2019-11-28 17:00:00 13.2 7 Sur 19 Sur 0 -- -- 95
2019-11-28 16:00:00 12.9 9 Sudoeste 19 Sudoeste 0 -- -- 97
2019-11-28 15:00:00 12.5 6 Sur 19 Sudoeste 0.4 -- -- 98
2019-11-28 14:00:00 11.6 7 Sudoeste 14 Sur 1.4 -- -- 98
2019-11-28 13:00:00 11.3 10 Sur 18 Sur 1 -- -- 98
2019-11-28 12:00:00 10.8 2 Sudeste 9 Oeste 1.6 -- -- 98
2019-11-28 11:00:00 10.4 5 Oeste 12 Oeste 1.6 -- -- 98
2019-11-28 10:00:00 10.2 5 Oeste 13 Sur 0.4 -- -- 98
2019-11-28 09:00:00 10.1 7 Sudoeste 13 Oeste 1.4 -- -- 98
2019-11-28 08:00:00 9.9 0 Calma 3 Noroeste 1.8 -- -- 98
2019-11-28 07:00:00 9.8 0 Calma -- -- 1.4 -- -- 98
2019-11-28 06:00:00 9.7 0 Calma 2 Noroeste 0.4 -- -- 98
2019-11-28 05:00:00 9.5 0 Calma 5 Noroeste 0 -- -- 98
2019-11-28 04:00:00 9.1 0 Calma 4 Noroeste 0 -- -- 98
2019-11-28 03:00:00 8.8 0 Calma 4 Norte 0 -- -- 98
2019-11-28 02:00:00 7.8 0 Calma 4 Nordeste 0 -- -- 98
2019-11-28 01:00:00 6.4 0 Calma 5 Noroeste 0 -- -- 97
2019-11-28 00:00:00 7.1 3 Norte 7 Noroeste 0 -- -- 95
2019-11-27 23:00:00 7.9 3 Nordeste 9 Oeste 0 -- -- 95
2019-11-27 22:00:00 8.7 6 Oeste 10 Oeste 0 -- -- 96
2019-11-27 21:00:00 9.5 5 Oeste 9 Oeste 0 -- -- 94
2019-11-27 20:00:00 9.9 2 Sudoeste 8 Sudeste 0 -- -- 92
2019-11-27 19:00:00 11.2 5 Sur 8 Sur 0 -- -- 90
2019-11-27 18:00:00 12.1 2 Este 12 Sudoeste 0 -- -- 88
2019-11-27 17:00:00 12.4 5 Sur 15 Sudoeste 0 -- -- 86
2019-11-27 16:00:00 12.7 10 Sur 25 Sudoeste 0 -- -- 85
2019-11-27 15:00:00 13.1 14 Sur 23 Sur 0 -- -- 85
2019-11-27 14:00:00 11.8 8 Sur 13 Sudeste 0 -- -- 92
2019-11-27 06:00:00 -- -- -- -- -- -- -- -- --
2019-11-27 05:00:00 8.9 4 Oeste 8 Noroeste 0 -- -- 96
2019-11-27 04:00:00 9.4 3 Sur 9 Sur 0 -- -- 96
2019-11-27 03:00:00 10.8 6 Sudoeste 15 Oeste 0 -- -- 97
2019-11-27 02:00:00 11.2 9 Sudoeste 18 Sudoeste 0 -- -- 97
2019-11-27 01:00:00 11.8 12 Sudoeste 21 Sudoeste 0.2 -- -- 96
2019-11-27 00:00:00 12.3 7 Sudoeste 15 Sudoeste 0 -- -- 97
2019-11-26 23:00:00 12.5 9 Sudoeste 25 Sudoeste 0.8 -- -- 96
2019-11-26 22:00:00 12.6 7 Sur 29 Sur 1 -- -- 95
2019-11-26 21:00:00 13.2 12 Sudoeste 29 Oeste 0.2 -- -- 96
2019-11-26 20:00:00 13.7 7 Sur 30 Sudoeste 0 -- -- 97
2019-11-26 19:00:00 13.9 9 Sur 22 Sudoeste 0 -- -- 97
2019-11-26 18:00:00 14.1 11 Sur 26 Sur 0.6 -- -- 97
2019-11-26 17:00:00 13.9 7 Sudoeste 25 Sudoeste 7 -- -- 97
2019-11-26 16:00:00 13.7 15 Sur 33 Sur 2.6 -- -- 97
2019-11-26 15:00:00 13.9 12 Sur 26 Sur 1.4 -- -- 97
2019-11-26 14:00:00 13.7 11 Sur 23 Sur 4.2 -- -- 97
2019-11-26 13:00:00 13.6 16 Sur 27 Sudoeste 1.8 -- -- 96
2019-11-26 12:00:00 13.4 10 Sur 24 Sudeste 2 -- -- 96
2019-11-26 11:00:00 13.4 16 Sur 28 Sur 1.2 -- -- 97
2019-11-26 10:00:00 13 8 Sudoeste 22 Oeste 1.6 -- -- 97
2019-11-26 09:00:00 12.7 11 Sur 20 Sudeste 0.4 -- -- 98
2019-11-26 08:00:00 11.3 2 Nordeste 6 Nordeste 0.2 -- -- 97
2019-11-26 07:00:00 11.3 3 Nordeste 6 Nordeste 0.8 -- -- 97
2019-11-26 06:00:00 11.4 2 Sudoeste 6 Sudoeste 1 -- -- 97
2019-11-26 05:00:00 11.1 0 Calma -- -- 1.2 -- -- 97
2019-11-26 04:00:00 10.9 0 Calma -- -- 0.6 -- -- 97
2019-11-26 03:00:00 10.5 0 Calma -- -- 0 -- -- 97
2019-11-26 02:00:00 10.2 0 Calma -- -- 0 -- -- 97
2019-11-26 01:00:00 10.2 0 Calma -- -- 0 -- -- 96
2019-11-26 00:00:00 9.6 0 Calma 5 Noroeste 0 -- -- 96
2019-11-25 23:00:00 9.9 0 Calma 2 Este 0 -- -- 95
2019-11-25 22:00:00 9.9 2 Noroeste 5 Noroeste 0 -- -- 94
2019-11-25 21:00:00 11 2 Noroeste 9 Noroeste 0 -- -- 94
2019-11-25 20:00:00 11.8 0 Calma 6 Noroeste 0 -- -- 92
2019-11-25 19:00:00 12.5 3 Noroeste 8 Noroeste 0 -- -- 90
2019-11-25 18:00:00 14.3 4 Sudoeste 12 Sudoeste 0 -- -- 87
2019-11-25 17:00:00 15.1 9 Sudoeste 17 Sudoeste 0 -- -- 84
2019-11-25 16:00:00 15.8 9 Sudoeste 23 Sur 0 -- -- 78
2019-11-25 15:00:00 16.5 13 Sudoeste 21 Sur 0 -- -- 76
2019-11-25 14:00:00 15.8 9 Sudoeste 21 Sur 0 -- -- 81
2019-11-25 13:00:00 16.1 10 Sur 17 Sudoeste 0 -- -- 83
2019-11-25 12:00:00 13.9 6 Sudoeste 11 Sur 0 -- -- 92
2019-11-25 11:00:00 12.2 0 Calma -- -- 0 -- -- 97
2019-11-25 10:00:00 10.6 0 Calma 6 Noroeste 0 -- -- 97
2019-11-25 09:00:00 9.3 3 Noroeste 8 Norte 0.2 -- -- 96
2019-11-25 08:00:00 10.1 0 Calma 9 Norte 0 -- -- 96
2019-11-25 07:00:00 10.2 4 Nordeste 9 Nordeste 0 -- -- 97
2019-11-25 06:00:00 9.8 3 Nordeste 9 Norte 0 -- -- 96
2019-11-25 05:00:00 9.4 2 Nordeste 6 Noroeste 0 -- -- 95
2019-11-25 04:00:00 10.4 4 Noroeste 5 Noroeste 0 -- -- 96
2019-11-25 03:00:00 10.4 2 Nordeste 8 Este 0.8 -- -- 95
2019-11-25 02:00:00 10.5 4 Norte 6 Nordeste 1.2 -- -- 95
2019-11-25 01:00:00 10.7 0 Calma -- -- 1.2 -- -- 95
2019-11-25 00:00:00 10.4 0 Calma 0 Calma 0.8 -- -- 95
2019-11-24 23:00:00 10.1 0 Calma -- -- 1 -- -- 95
2019-11-24 22:00:00 10 0 Calma -- -- 0.4 -- -- 94
2019-11-24 21:00:00 10 0 Calma 5 Noroeste 0.4 -- -- 94
2019-11-24 20:00:00 10.1 0 Calma 5 Noroeste 0 -- -- 92
2019-11-24 19:00:00 10.1 0 Calma 4 Sudeste 0.2 -- -- 92
2019-11-24 18:00:00 10.3 3 Sudeste 13 Sudoeste 0 -- -- 90
2019-11-24 17:00:00 11 6 Sudoeste 13 Sudoeste 0 -- -- 81
2019-11-24 16:00:00 11.3 8 Sur 15 Sur 0 -- -- 77
2019-11-24 15:00:00 11.8 7 Sudoeste 17 Sur 0 -- -- 74
2019-11-24 14:00:00 13.2 10 Sur 18 Sur 0 -- -- 64
2019-11-24 13:00:00 12 10 Sur 17 Sur 0 -- -- 65
2019-11-24 12:00:00 11.6 5 Sudeste 13 Sudeste 0 -- -- 64
2019-11-24 11:00:00 8.9 3 Sur 11 Sur 0 -- -- 77
2019-11-24 10:00:00 6.9 0 Calma 6 Sur 0 -- -- 83
2019-11-24 09:00:00 4.3 0 Calma 7 Noroeste 0 -- -- 90
2019-11-24 08:00:00 4.8 5 Noroeste 12 Oeste 0 -- -- 87
2019-11-24 07:00:00 4.6 3 Sur 10 Nordeste 0 -- -- 86
2019-11-24 06:00:00 4.3 2 Sudeste 14 Nordeste 0 -- -- 85
2019-11-24 05:00:00 7.3 6 Noroeste 22 Oeste 0 -- -- 75
2019-11-24 04:00:00 6.3 5 Noroeste 15 Noroeste 0 -- -- 76
2019-11-24 03:00:00 8.1 5 Noroeste 26 Noroeste 0 -- -- 72
2019-11-24 02:00:00 8.5 12 Oeste 31 Noroeste 0 -- -- 71
2019-11-24 01:00:00 8.8 14 Noroeste 36 Noroeste 0 -- -- 71
2019-11-24 00:00:00 9.1 11 Noroeste 35 Noroeste 0 -- -- 70
2019-11-23 23:00:00 9 10 Noroeste 29 Norte 0 -- -- 72
2019-11-23 22:00:00 9.3 8 Oeste 24 Nordeste 0 -- -- 71
2019-11-23 21:00:00 9.3 5 Norte 27 Norte 0 -- -- 70
2019-11-23 20:00:00 6.7 4 Noroeste 19 Noroeste 0 -- -- 81
2019-11-23 19:00:00 9.2 3 Noroeste 19 Oeste 0 -- -- 70
2019-11-23 18:00:00 11.1 5 Noroeste 19 Oeste 0 -- -- 61
2019-11-23 17:00:00 11.9 5 Oeste 28 Oeste 0 -- -- 56
2019-11-23 16:00:00 12.4 8 Sudoeste 32 Noroeste 0 -- -- 55
2019-11-23 15:00:00 13.1 17 Noroeste 40 Noroeste 0 -- -- 52
2019-11-23 14:00:00 12.1 10 Oeste 38 Oeste 0 -- -- 59
2019-11-23 13:00:00 10.8 8 Sur 23 Oeste 0 -- -- 63
2019-11-23 12:00:00 10.2 7 Oeste 31 Sudoeste 0 -- -- 65
2019-11-23 11:00:00 9.4 11 Sudoeste 49 Noroeste 0 -- -- 68
2019-11-23 10:00:00 8.7 8 Oeste 31 Sudoeste 0 -- -- 70
2019-11-23 09:00:00 8.1 13 Oeste 39 Oeste 0 -- -- 70
2019-11-23 08:00:00 8.3 17 Noroeste 43 Oeste 0 -- -- 69
2019-11-23 07:00:00 8.2 7 Sudoeste 23 Norte 0 -- -- 69
2019-11-23 06:00:00 8.2 8 Oeste 47 Sudoeste 0 -- -- 68
2019-11-23 05:00:00 8.4 7 Sudoeste 42 Oeste 0 -- -- 69
2019-11-23 04:00:00 8.8 12 Sudoeste 36 Norte 0 -- -- 70
2019-11-23 03:00:00 9.2 18 Sudoeste 60 Sudoeste 0 -- -- 70
2019-11-23 02:00:00 9.2 13 Oeste 52 Oeste 0 -- -- 69
2019-11-23 01:00:00 8.7 18 Noroeste 49 Noroeste 0.4 -- -- 73
2019-11-23 00:00:00 9.4 16 Oeste 38 Sudoeste 0.6 -- -- 78
2019-11-22 23:00:00 9.5 13 Sudoeste 26 Sudoeste 0 -- -- 91
2019-11-22 22:00:00 9.7 7 Sudoeste 18 Sudoeste 0 -- -- 90
2019-11-22 21:00:00 9.4 4 Sudoeste 21 Sudoeste 0 -- -- 84
2019-11-22 20:00:00 10.2 8 Sudoeste 17 Sudoeste 0 -- -- 78
2019-11-22 19:00:00 11.1 6 Sudoeste 31 Oeste 0 -- -- 76
2019-11-22 18:00:00 12.4 19 Sudoeste 33 Sudoeste 0 -- -- 68
2019-11-22 17:00:00 13.4 16 Sudoeste 38 Sudoeste 0 -- -- 73
2019-11-22 16:00:00 14.9 16 Sudoeste 44 Oeste 0.2 -- -- 67
2019-11-22 15:00:00 14.7 18 Sudoeste 32 Sudoeste 0.4 -- -- 80
2019-11-22 14:00:00 13.8 6 Sudoeste 28 Sur 0.6 -- -- 96
2019-11-22 13:00:00 13.5 12 Sur 24 Sudoeste 2.2 -- -- 98
2019-11-22 12:00:00 11.3 3 Oeste 19 Oeste 7.8 -- -- 96
2019-11-22 11:00:00 10.8 10 Oeste 29 Oeste 4.4 -- -- 96
2019-11-22 10:00:00 10.4 9 Sudoeste 27 Sudoeste 5.4 -- -- 96
2019-11-22 09:00:00 10.4 19 Sur 43 Sudeste 2.8 -- -- 95
2019-11-22 08:00:00 10.2 10 Sur 36 Sudeste 3.2 -- -- 95
2019-11-22 07:00:00 9.8 11 Sur 30 Sur 3.6 -- -- 95
2019-11-22 06:00:00 9.3 13 Sur 24 Sur 2.6 -- -- 95
2019-11-22 05:00:00 9.6 8 Sur 28 Sur 1.8 -- -- 96
2019-11-22 04:00:00 9.7 10 Sur 23 Sur 0.4 -- -- 96
2019-11-22 03:00:00 9.8 10 Sur 23 Sur 0 -- -- 96
2019-11-22 02:00:00 9.6 7 Sudoeste 12 Sudoeste 0.6 -- -- 95
2019-11-22 01:00:00 9.5 5 Sudoeste 9 Oeste 0 -- -- 95
2019-11-22 00:00:00 9.4 0 Calma 4 Nordeste 0 -- -- 94
2019-11-21 23:00:00 9.4 0 Calma 9 Sudoeste 0 -- -- 94
2019-11-21 22:00:00 9.6 0 Calma 9 Oeste 0 -- -- 93
2019-11-21 21:00:00 9.5 0 Calma 6 Noroeste 0.6 -- -- 94
2019-11-21 20:00:00 9.4 0 Calma 5 Este 0 -- -- 92
2019-11-21 19:00:00 9.3 3 Norte 5 Norte 0 -- -- 89
2019-11-21 18:00:00 11.6 0 Calma 11 Sur 0 -- -- 80
2019-11-21 17:00:00 13.2 6 Sudoeste 13 Sur 0 -- -- 71
2019-11-21 16:00:00 13.3 9 Sur 17 Sur 0 -- -- 74
2019-11-21 15:00:00 12.2 6 Sudoeste 17 Oeste 0 -- -- 80
2019-11-21 14:00:00 11.6 10 Sur 15 Sur 0 -- -- 82
2019-11-21 13:00:00 10.8 8 Sur 14 Sur 0 -- -- 90
2019-11-21 12:00:00 9.3 5 Sur 9 Sur 0 -- -- 96
2019-11-21 11:00:00 8.5 0 Calma 3 Nordeste 0.2 -- -- 96
2019-11-21 10:00:00 8 2 Nordeste 3 Nordeste 0 -- -- 97
2019-11-21 09:00:00 7.4 0 Calma 4 Norte 0.4 -- -- 97
2019-11-21 08:00:00 7.3 0 Calma 5 Noroeste 0.4 -- -- 97
2019-11-21 07:00:00 7 0 Calma 4 Norte 0.2 -- -- 96
2019-11-21 06:00:00 6.9 0 Calma 3 Nordeste 1 -- -- 96
2019-11-21 05:00:00 6.9 2 Norte 4 Norte 1.4 -- -- 96
2019-11-21 04:00:00 6.8 0 Calma 4 Norte 1 -- -- 96
2019-11-21 03:00:00 6.8 0 Calma 4 Nordeste 0 -- -- 96
2019-11-21 02:00:00 6.6 0 Calma 4 Nordeste 0.2 -- -- 95
2019-11-21 01:00:00 6.7 2 Norte 8 Nordeste 1.6 -- -- 95
2019-11-21 00:00:00 6.7 3 Este 7 Sudeste 0.2 -- -- 95
2019-11-20 23:00:00 6.8 0 Calma 6 Norte 0 -- -- 95
2019-11-20 22:00:00 6.8 3 Nordeste 6 Norte 0 -- -- 95
2019-11-20 21:00:00 6.9 2 Norte 4 Norte 0 -- -- 96
2019-11-20 20:00:00 6.9 0 Calma 5 Nordeste 0.2 -- -- 95
2019-11-20 19:00:00 6.9 0 Calma 4 Norte 0.2 -- -- 95
2019-11-20 18:00:00 7 0 Calma 4 Este 0.4 -- -- 95
2019-11-20 17:00:00 7.2 0 Calma 4 Noroeste 0.8 -- -- 94
2019-11-20 16:00:00 7.3 0 Calma 6 Sur 0.8 -- -- 94
2019-11-20 15:00:00 7.1 5 Oeste 11 Sudoeste 0.4 -- -- 92
2019-11-20 14:00:00 6.8 0 Calma 12 Oeste 0 -- -- 92
2019-11-20 13:00:00 6.7 3 Oeste 17 Este 0.2 -- -- 92
2019-11-20 12:00:00 6.7 4 Sur 15 Sur 2.2 -- -- 92
2019-11-20 11:00:00 6.5 2 Este 8 Oeste 2 -- -- 94
2019-11-20 10:00:00 6.3 4 Noroeste 13 Norte 0.8 -- -- 94
2019-11-20 09:00:00 6 8 Norte 13 Norte 2.4 -- -- 95
2019-11-20 08:00:00 6.1 2 Nordeste 5 Nordeste 3.4 -- -- 95
2019-11-20 07:00:00 6.2 2 Norte 5 Nordeste 1.4 -- -- 95
2019-11-20 06:00:00 6.3 3 Nordeste 6 Noroeste 1.4 -- -- 94
2019-11-20 05:00:00 6.6 0 Calma 5 Norte 0.2 -- -- 93
2019-11-20 04:00:00 6.7 5 Noroeste 7 Noroeste 0 -- -- 94
2019-11-20 03:00:00 6.7 3 Nordeste 5 Norte -- -- -- 92
2019-11-20 02:00:00 6.9 4 Norte 7 Norte 0.2 -- -- 91
2019-11-20 01:00:00 7 5 Noroeste 6 Noroeste 0 -- -- 90
2019-11-20 00:00:00 7 0 Calma 5 Norte 0 -- -- 88
2019-11-19 23:00:00 7 2 Norte 4 Norte 0 -- -- 86
2019-11-19 22:00:00 7.2 0 Calma -- -- 0 -- -- 85
2019-11-19 21:00:00 7.5 0 Calma 4 Noroeste 0 -- -- 85
2019-11-19 20:00:00 7.9 0 Calma 0 Calma 0 -- -- 82
2019-11-19 19:00:00 8.6 0 Calma 3 Sudoeste 0 -- -- 79
2019-11-19 18:00:00 9.1 2 Sudoeste 8 Sur 0 -- -- 72
2019-11-19 17:00:00 9.9 5 Sur 10 Sur 0 -- -- 67
2019-11-19 16:00:00 10.7 4 Sudoeste 9 Sudeste 0 -- -- 67
2019-11-19 15:00:00 10.9 4 Sudeste 9 Sudeste 0 -- -- 66
2019-11-19 14:00:00 11 3 Este 9 Sudeste 0 -- -- 62
2019-11-19 13:00:00 10.7 6 Sudeste 9 Sudeste 0 -- -- 64
2019-11-19 12:00:00 9.3 0 Calma 6 Nordeste 0 -- -- 70
2019-11-19 11:00:00 7.3 2 Nordeste 8 Este 0 -- -- 77
2019-11-19 10:00:00 4.4 5 Norte 11 Norte 0 -- -- 88
2019-11-19 09:00:00 2 5 Norte 13 Nordeste 0 -- -- 94
2019-11-19 08:00:00 1.1 3 Norte 12 Nordeste 0 -- -- 94
2019-11-19 07:00:00 0.8 2 Nordeste 10 Norte 0 -- -- 94
2019-11-19 06:00:00 1.3 3 Norte 10 Nordeste 0 -- -- 94
2019-11-19 05:00:00 0.9 3 Nordeste 4 Nordeste 0 -- -- 94
2019-11-19 04:00:00 1.3 0 Calma 8 Noroeste 0 -- -- 92
2019-11-19 03:00:00 2.1 3 Norte 10 Este 0 -- -- 89
2019-11-19 02:00:00 2.1 3 Norte 6 Norte 0 -- -- 91
2019-11-19 01:00:00 2.4 2 Norte 13 Norte 0 -- -- 90
2019-11-19 00:00:00 2 0 Calma 7 Norte 0 -- -- 91
2019-11-18 23:00:00 2 4 Nordeste 9 Noroeste 0 -- -- 89
2019-11-18 22:00:00 3.1 0 Calma 10 Nordeste 0 -- -- 85
2019-11-18 21:00:00 4.9 4 Noroeste 16 Nordeste 0 -- -- 81
2019-11-18 20:00:00 6.6 10 Nordeste 17 Nordeste 0 -- -- 75
2019-11-18 19:00:00 7.2 0 Calma 10 Norte 0 -- -- 72
2019-11-18 18:00:00 10.3 3 Norte 18 Noroeste 0 -- -- 59
2019-11-18 17:00:00 12.7 9 Norte 29 Norte 0 -- -- 52
2019-11-18 16:00:00 -- -- -- -- -- -- -- -- --
2019-11-18 15:00:00 14.2 5 Noroeste 21 Noroeste 0 -- -- 50
2019-11-18 14:00:00 13.4 9 Norte 21 Norte 0 -- -- 53
2019-11-18 13:00:00 12.9 8 Norte 21 Norte 0 -- -- 54
2019-11-18 12:00:00 12.6 5 Sur 13 Sur 0 -- -- 55
2019-11-18 11:00:00 11 5 Sudeste 9 Sudeste 0 -- -- 63
2019-11-18 10:00:00 8.7 3 Norte 8 Este 0 -- -- 68
2019-11-18 09:00:00 4.5 3 Norte 6 Noroeste 0 -- -- 87
2019-11-18 08:00:00 4.2 2 Sudoeste 8 Oeste 0 -- -- 84
2019-11-18 07:00:00 6.7 4 Sur 36 Norte 0 -- -- 77
2019-11-18 06:00:00 7.1 20 Norte 53 Norte 0 -- -- 75
2019-11-18 05:00:00 7.4 27 Norte 57 Noroeste 0 -- -- 75
2019-11-18 04:00:00 7.6 35 Noroeste 62 Noroeste 0 -- -- 74
2019-11-18 03:00:00 7.6 24 Norte 49 Noroeste 0 -- -- 74
2019-11-18 02:00:00 7.5 23 Noroeste 57 Noroeste 0 -- -- 75
2019-11-18 01:00:00 7.4 13 Norte 24 Noroeste 0 -- -- 77
2019-11-18 00:00:00 7.8 10 Norte 22 Norte 0 -- -- 75
2019-11-17 23:00:00 7.8 7 Norte 29 Norte 0 -- -- 77
2019-11-17 22:00:00 8.2 13 Norte 32 Norte 0 -- -- 80
2019-11-17 21:00:00 9.2 11 Noroeste 31 Noroeste 0 -- -- 80
2019-11-17 20:00:00 8.9 5 Nordeste 34 Noroeste 0.4 -- -- 90
2019-11-17 19:00:00 7.4 0 Calma 6 Nordeste 1 -- -- 95
2019-11-17 18:00:00 7.4 0 Calma 4 Sudeste 0 -- -- 95
2019-11-17 17:00:00 7.4 3 Sur 9 Sudoeste 0.4 -- -- 95
2019-11-17 16:00:00 7.4 5 Sudoeste 11 Sudoeste 0 -- -- 95
2019-11-17 15:00:00 7.2 5 Sudoeste 12 Sudoeste 0 -- -- 94
2019-11-17 14:00:00 7.2 6 Sur 12 Sur 0 -- -- 94
2019-11-17 13:00:00 7.1 2 Sur 8 Sur 0.2 -- -- 93
2019-11-17 12:00:00 7 3 Sur 5 Sudoeste 0.2 -- -- 92
2019-11-17 11:00:00 6.5 0 Calma 3 Sur 0 -- -- 93
2019-11-17 10:00:00 5.7 0 Calma 3 Norte 0 -- -- 94
2019-11-17 09:00:00 5.2 0 Calma 4 Este 0 -- -- 94
2019-11-17 08:00:00 5 0 Calma 4 Norte 0.4 -- -- 94
2019-11-17 07:00:00 4.8 0 Calma 4 Nordeste 0.4 -- -- 94
2019-11-17 06:00:00 4.7 0 Calma 5 Sur 0.6 -- -- 92
2019-11-17 05:00:00 4.8 3 Sur 8 Sudoeste 0 -- -- 89
2019-11-17 04:00:00 4.2 0 Calma 4 Nordeste 0 -- -- 89
2019-11-17 03:00:00 3.3 0 Calma 6 Oeste 0 -- -- 91
2019-11-17 02:00:00 2 2 Nordeste 5 Nordeste 0 -- -- 90
2019-11-17 01:00:00 2.6 0 Calma 6 Nordeste 0 -- -- 86
2019-11-17 00:00:00 4.1 0 Calma 5 Noroeste 0 -- -- 82
2019-11-16 23:00:00 5.9 0 Calma 17 Noroeste 0 -- -- 74
2019-11-16 22:00:00 8 5 Noroeste 22 Noroeste 0 -- -- 65
2019-11-16 21:00:00 8.3 5 Norte 26 Noroeste 0 -- -- 61
2019-11-16 20:00:00 8.6 13 Noroeste 28 Noroeste 0 -- -- 59
2019-11-16 19:00:00 8.8 10 Noroeste 23 Noroeste 0 -- -- 58
2019-11-16 18:00:00 9.3 5 Oeste 17 Noroeste 0 -- -- 58
2019-11-16 17:00:00 10.5 6 Noroeste 19 Norte 0 -- -- 55
2019-11-16 16:00:00 10.5 5 Noroeste 23 Noroeste 0 -- -- 58
2019-11-16 15:00:00 11.3 12 Oeste 23 Oeste 0 -- -- 54
2019-11-16 14:00:00 9.9 14 Oeste 26 Noroeste 0 -- -- 58
2019-11-16 13:00:00 9.4 13 Noroeste 28 Noroeste 0 -- -- 57
2019-11-16 12:00:00 9.1 6 Oeste 23 Noroeste 0 -- -- 59
2019-11-16 11:00:00 8.2 10 Noroeste 25 Noroeste 0 -- -- 62
2019-11-16 10:00:00 6.5 3 Nordeste 18 Noroeste 0 -- -- 68
2019-11-16 09:00:00 1.6 5 Nordeste 10 Este 0 -- -- 87
2019-11-16 08:00:00 0.4 2 Norte 15 Sur 0 -- -- 86
2019-11-16 07:00:00 1.6 3 Oeste 10 Nordeste 0 -- -- 83
2019-11-16 06:00:00 2.8 0 Calma 20 Norte 0 -- -- 77
2019-11-16 05:00:00 5.4 12 Norte 37 Noroeste 0 -- -- 65
2019-11-16 04:00:00 4.9 24 Noroeste 41 Noroeste 0 -- -- 72
2019-11-16 03:00:00 5.1 17 Noroeste 44 Noroeste 0 -- -- 71
2019-11-16 02:00:00 5.2 22 Norte 40 Noroeste 0 -- -- 71
2019-11-16 01:00:00 5.6 13 Norte 39 Noroeste 0 -- -- 69
2019-11-16 00:00:00 6 14 Norte 34 Noroeste 0 -- -- 68
2019-11-15 23:00:00 5.9 19 Norte 38 Norte 0 -- -- 67
2019-11-15 22:00:00 5.8 12 Norte 37 Norte 0 -- -- 67
2019-11-15 21:00:00 6.3 14 Norte 32 Nordeste 0 -- -- 64
2019-11-15 20:00:00 6.7 6 Norte 21 Norte 0 -- -- 61
2019-11-15 19:00:00 5.4 4 Norte 19 Nordeste 0 -- -- 66
2019-11-15 18:00:00 7.5 11 Norte 26 Norte 0 -- -- 55
2019-11-15 17:00:00 8.3 6 Oeste 35 Noroeste 0 -- -- 51
2019-11-15 16:00:00 8.7 13 Norte 51 Norte 0 -- -- 53
2019-11-15 15:00:00 8.8 18 Norte 49 Norte 0 -- -- 51
2019-11-15 14:00:00 9.3 19 Norte 45 Norte 0 -- -- 51
2019-11-15 13:00:00 9.2 19 Norte 45 Nordeste 0 -- -- 55
2019-11-15 12:00:00 8.5 18 Norte 40 Norte 0 -- -- 59
2019-11-15 11:00:00 7.5 20 Norte 56 Norte 0 -- -- 62
2019-11-15 10:00:00 5.7 19 Norte 53 Nordeste 0 -- -- 69
2019-11-15 09:00:00 5.3 16 Norte 62 Nordeste 0 -- -- 69
2019-11-15 08:00:00 5.4 23 Norte 43 Noroeste 0 -- -- 67
2019-11-15 07:00:00 5.4 11 Nordeste 25 Nordeste 0 -- -- 66
2019-11-15 06:00:00 5.5 8 Sudeste 46 Noroeste 0 -- -- 66
2019-11-15 05:00:00 5.6 26 Noroeste 56 Noroeste 0 -- -- 64
2019-11-15 04:00:00 5.6 23 Noroeste 51 Noroeste 0 -- -- 66
2019-11-15 03:00:00 5.1 6 Noroeste 21 Norte 0 -- -- 67
2019-11-15 02:00:00 6 10 Sudoeste 37 Noroeste 0 -- -- 65
2019-11-15 01:00:00 6.4 7 Oeste 41 Oeste 0 -- -- 66
2019-11-15 00:00:00 6.9 6 Sudoeste 31 Sudoeste 0 -- -- 63
2019-11-14 23:00:00 7.3 9 Sudoeste 35 Noroeste 0 -- -- 66
2019-11-14 22:00:00 7.9 18 Oeste 47 Sudoeste 0 -- -- 64
2019-11-14 21:00:00 7.9 14 Sudoeste 51 Noroeste 0 -- -- 66
2019-11-14 20:00:00 8.5 23 Noroeste 68 Oeste 0 -- -- 65
2019-11-14 19:00:00 8.5 23 Noroeste 61 Noroeste 0 -- -- 68
2019-11-14 18:00:00 8.1 27 Noroeste 71 Norte 0.2 -- -- 73
2019-11-14 17:00:00 9.4 17 Noroeste 53 Norte 0 -- -- 67
2019-11-14 16:00:00 9 12 Noroeste 37 Sudoeste 0.2 -- -- 70
2019-11-14 15:00:00 8.8 18 Oeste 46 Oeste 0.2 -- -- 66
2019-11-14 14:00:00 10.9 22 Oeste 49 Oeste 0 -- -- 53
2019-11-14 13:00:00 10.1 15 Noroeste 43 Oeste 0 -- -- 54
2019-11-14 12:00:00 8.9 22 Noroeste 45 Noroeste 0.2 -- -- 61
2019-11-14 11:00:00 8.9 11 Oeste 37 Oeste 0 -- -- 68
2019-11-14 10:00:00 7.1 9 Oeste 33 Oeste 0 -- -- 76
2019-11-14 09:00:00 6.6 5 Norte 36 Noroeste 0 -- -- 77
2019-11-14 08:00:00 7 12 Norte 51 Oeste 0.6 -- -- 80
2019-11-14 07:00:00 8.7 19 Noroeste 42 Sudoeste 1.4 -- -- 79
2019-11-14 06:00:00 7.9 9 Sur 17 Sur 2 -- -- 94
2019-11-14 05:00:00 8 2 Sudoeste 13 Sudoeste 0.6 -- -- 91
2019-11-14 04:00:00 8.1 6 Oeste 14 Oeste 0.2 -- -- 87
2019-11-14 03:00:00 7.3 4 Sudoeste 13 Sur 0 -- -- 82
2019-11-14 02:00:00 9.5 9 Sudoeste 26 Noroeste 0 -- -- 72
2019-11-14 01:00:00 11.3 21 Noroeste 48 Noroeste 0 -- -- 61
2019-11-14 00:00:00 10.9 26 Noroeste 59 Noroeste 0 -- -- 63
2019-11-13 23:00:00 10.9 24 Noroeste 56 Noroeste 0 -- -- 64
2019-11-13 22:00:00 12.1 23 Noroeste 46 Noroeste 0 -- -- 66
2019-11-13 21:00:00 12.9 18 Noroeste 34 Noroeste 0 -- -- 66
2019-11-13 20:00:00 13.4 10 Noroeste 26 Noroeste 0 -- -- 64
2019-11-13 19:00:00 14 8 Noroeste 18 Noroeste 0 -- -- 63
2019-11-13 18:00:00 14.2 8 Noroeste 13 Oeste 0 -- -- 66
2019-11-13 17:00:00 18.2 7 Noroeste 23 Oeste 0 -- -- 53
2019-11-13 16:00:00 18.8 12 Oeste 29 Noroeste 0 -- -- 50
2019-11-13 15:00:00 19.2 13 Oeste 27 Oeste 0 -- -- 53
2019-11-13 14:00:00 18.8 4 Oeste 18 Sudoeste 0 -- -- 55
2019-11-13 13:00:00 16.5 9 Noroeste 28 Noroeste 0 -- -- 66
2019-11-13 12:00:00 16 4 Oeste 20 Oeste 0 -- -- 74
2019-11-13 11:00:00 13.6 4 Sur 22 Sur 0 -- -- 83
2019-11-13 10:00:00 12.7 12 Sur 22 Sudoeste 0 -- -- 88
2019-11-13 09:00:00 12.2 14 Sudoeste 32 Sudoeste 0 -- -- 96
2019-11-13 08:00:00 11.9 11 Sur 23 Sur 0 -- -- 97
2019-11-13 07:00:00 11.7 12 Sur 25 Sur 0 -- -- 96
2019-11-13 06:00:00 11.5 12 Sur 24 Sur 0.6 -- -- 95
2019-11-13 05:00:00 11.5 10 Sur 15 Sudoeste 0.4 -- -- 95
2019-11-13 04:00:00 11.2 5 Sudoeste 15 Oeste 0 -- -- 94
2019-11-13 03:00:00 11 3 Sudeste 9 Sudoeste 0.6 -- -- 94
2019-11-13 02:00:00 11.1 0 Calma 10 Sudoeste 0.2 -- -- 92
2019-11-13 01:00:00 11.3 6 Sudoeste 15 Sudoeste 0 -- -- 90
2019-11-13 00:00:00 11.3 5 Sudoeste 15 Sudoeste 0 -- -- 88
2019-11-12 23:00:00 11.4 9 Sudoeste 15 Sudoeste 0 -- -- 86
2019-11-12 22:00:00 11.8 4 Sur 14 Sur 0 -- -- 82
2019-11-12 21:00:00 12.4 5 Sudoeste 13 Sudoeste 0 -- -- 77
2019-11-12 20:00:00 12.5 7 Sudoeste 13 Sudoeste 0 -- -- 75
2019-11-12 19:00:00 12.7 0 Calma 6 Oeste 0 -- -- 74
2019-11-12 18:00:00 13.4 3 Sudeste 8 Oeste 0 -- -- 70
2019-11-12 17:00:00 14 5 Noroeste 13 Oeste 0 -- -- 64
2019-11-12 16:00:00 14.4 6 Oeste 22 Noroeste 0 -- -- 59
2019-11-12 15:00:00 15 10 Noroeste 28 Noroeste 0 -- -- 54
2019-11-12 14:00:00 14.7 13 Noroeste 32 Oeste 0 -- -- 54
2019-11-12 13:00:00 12.7 8 Norte 43 Noroeste 0 -- -- 57
2019-11-12 12:00:00 12.9 18 Noroeste 35 Norte 0 -- -- 55
2019-11-12 11:00:00 11.7 20 Norte 46 Noroeste 0 -- -- 58
2019-11-12 10:00:00 10.3 28 Norte 59 Norte 0 -- -- 59
2019-11-12 09:00:00 9.8 23 Norte 48 Norte 0 -- -- 58
2019-11-12 08:00:00 9.3 26 Norte 50 Norte 0 -- -- 58
2019-11-12 07:00:00 9.2 18 Norte 40 Noroeste 0 -- -- 60
2019-11-12 06:00:00 9 15 Noroeste 30 Noroeste 0 -- -- 64
2019-11-12 05:00:00 8 3 Sur 22 Norte 0 -- -- 72
2019-11-12 04:00:00 8.2 5 Oeste 17 Norte 0 -- -- 69
2019-11-12 03:00:00 8 8 Oeste 14 Oeste 0 -- -- 74
2019-11-12 02:00:00 8 3 Sur 22 Norte 0 -- -- 76
2019-11-12 01:00:00 9 10 Norte 19 Norte 0 -- -- 72
2019-11-12 00:00:00 9.3 7 Noroeste 13 Noroeste 0 -- -- 72
2019-11-11 23:00:00 10.5 9 Este 36 Noroeste 0 -- -- 69
2019-11-11 22:00:00 11.4 21 Noroeste 44 Norte 0 -- -- 66
2019-11-11 21:00:00 12.4 22 Noroeste 53 Norte 0 -- -- 64
2019-11-11 20:00:00 13.1 24 Norte 50 Norte 0 -- -- 65
2019-11-11 19:00:00 13.4 18 Norte 35 Norte 0 -- -- 66
2019-11-11 18:00:00 14.1 15 Noroeste 37 Noroeste 0 -- -- 66
2019-11-11 17:00:00 14.8 16 Norte 31 Noroeste 0 -- -- 64
2019-11-11 16:00:00 15.5 13 Norte 30 Noroeste 0 -- -- 66
2019-11-11 15:00:00 15.7 13 Norte 34 Norte 0 -- -- 68
2019-11-11 14:00:00 11.9 3 Norte 10 Sudeste 0 -- -- 94
2019-11-11 13:00:00 10.6 5 Sur 11 Sur 0 -- -- 95
2019-11-11 12:00:00 10 0 Calma 4 Sudeste 0.2 -- -- 94
2019-11-11 11:00:00 9.3 0 Calma 6 Norte 0.2 -- -- 95
2019-11-11 10:00:00 9 0 Calma 8 Sudeste 0 -- -- 94
2019-11-11 09:00:00 8.5 5 Sur 7 Sur 0 -- -- 94
2019-11-11 08:00:00 8.3 0 Calma 3 Noroeste 0 -- -- 92
2019-11-11 07:00:00 8.5 0 Calma 4 Noroeste 0 -- -- 91
2019-11-11 06:00:00 8.6 0 Calma 2 Nordeste 0 -- -- 88
2019-11-11 05:00:00 8.5 2 Noroeste 5 Noroeste 0 -- -- 88
2019-11-11 04:00:00 8.7 0 Calma 8 Nordeste 0 -- -- 85
2019-11-11 03:00:00 8.7 2 Este 8 Sudeste 0 -- -- 84
2019-11-11 02:00:00 9.1 0 Calma 22 Noroeste 0 -- -- 83
2019-11-11 01:00:00 9.6 13 Noroeste 27 Oeste 0 -- -- 79
2019-11-11 00:00:00 9.3 7 Noroeste 20 Sudoeste 0 -- -- 78
2019-11-10 23:00:00 9.1 8 Sudoeste 18 Sudoeste 0 -- -- 78
2019-11-10 22:00:00 8.8 12 Sur 24 Sudeste 0.2 -- -- 79
2019-11-10 21:00:00 8.5 9 Sur 17 Sur 0 -- -- 82
2019-11-10 20:00:00 9.3 7 Sur 18 Sudeste 0 -- -- 76
2019-11-10 19:00:00 9.8 6 Norte 29 Nordeste 0.2 -- -- 69
2019-11-10 18:00:00 9.8 9 Sudeste 27 Oeste 0 -- -- 70
2019-11-10 17:00:00 10.1 8 Noroeste 29 Oeste 0 -- -- 67
2019-11-10 16:00:00 10.4 9 Oeste 30 Noroeste 0 -- -- 66
2019-11-10 15:00:00 9.8 5 Sur 30 Noroeste 0 -- -- 70
2019-11-10 14:00:00 9.4 8 Oeste 36 Oeste 0.2 -- -- 75
2019-11-10 13:00:00 10.4 9 Oeste 55 Noroeste 0 -- -- 62
2019-11-10 12:00:00 10.5 15 Noroeste 48 Oeste 0 -- -- 58
2019-11-10 11:00:00 10.1 12 Sudoeste 41 Noroeste 0 -- -- 57
2019-11-10 10:00:00 9.1 10 Sudeste 36 Nordeste 0 -- -- 67
2019-11-10 09:00:00 8.4 10 Nordeste 38 Nordeste 0 -- -- 68
2019-11-10 08:00:00 8.6 15 Nordeste 52 Norte 0 -- -- 65
2019-11-10 07:00:00 8.4 12 Nordeste 49 Oeste 0 -- -- 66
2019-11-10 06:00:00 9 12 Norte 41 Nordeste 0 -- -- 62
2019-11-10 05:00:00 9.2 11 Sudeste 35 Norte 0 -- -- 64
2019-11-10 04:00:00 9.1 13 Norte 45 Norte 0 -- -- 64
2019-11-10 03:00:00 9.4 10 Nordeste 37 Nordeste 0 -- -- 65
2019-11-10 02:00:00 10.1 6 Noroeste 30 Oeste 0 -- -- 71
2019-11-10 01:00:00 10.2 9 Sur 40 Oeste 0 -- -- 72
2019-11-10 00:00:00 10.1 13 Oeste 37 Oeste 0 -- -- 75
2019-11-09 23:00:00 10.2 7 Sudoeste 24 Oeste 0 -- -- 79
2019-11-09 22:00:00 9.6 5 Este 16 Oeste 0 -- -- 91
2019-11-09 21:00:00 8.6 0 Calma 9 Nordeste 0 -- -- 94
2019-11-09 20:00:00 8.6 2 Norte 9 Norte 0 -- -- 93
2019-11-09 19:00:00 9 4 Nordeste 9 Nordeste 0 -- -- 92
2019-11-09 18:00:00 9.5 0 Calma -- -- 0 -- -- 91
2019-11-09 17:00:00 9.4 0 Calma 5 Norte 1.6 -- -- 91
2019-11-09 16:00:00 9.6 3 Nordeste 5 Nordeste 2.6 -- -- 89
2019-11-09 15:00:00 10.6 3 Oeste 18 Sudoeste 0.2 -- -- 78
2019-11-09 14:00:00 10.9 10 Sudoeste 20 Sudoeste 0 -- -- 66
2019-11-09 13:00:00 11.2 8 Sur 17 Sur 0 -- -- 65
2019-11-09 12:00:00 10.3 9 Sur 14 Sudoeste 0 -- -- 68
2019-11-09 11:00:00 9.4 5 Sudoeste 12 Sur 0 -- -- 74
2019-11-09 10:00:00 7.4 0 Calma 6 Nordeste 0 -- -- 85
2019-11-09 09:00:00 4.7 0 Calma 6 Nordeste 0 -- -- 89
2019-11-09 08:00:00 3.8 0 Calma 8 Norte 0 -- -- 88
2019-11-09 07:00:00 4.5 3 Oeste 22 Norte 0 -- -- 85
2019-11-09 06:00:00 3.2 6 Nordeste 18 Norte 0 -- -- 91
2019-11-09 05:00:00 3.4 2 Noroeste 7 Nordeste 0 -- -- 85
2019-11-09 04:00:00 6.5 4 Noroeste 18 Oeste 0 -- -- 73
2019-11-09 03:00:00 5.8 3 Sudoeste 13 Sudoeste 0 -- -- 79
2019-11-09 02:00:00 6.4 4 Sudoeste 12 Sudeste 0 -- -- 77
2019-11-09 01:00:00 7.4 3 Este 26 Norte 0 -- -- 73
2019-11-09 00:00:00 7.8 15 Norte 29 Noroeste 0 -- -- 71
2019-11-08 23:00:00 7.7 4 Norte 32 Norte 0 -- -- 70
2019-11-08 22:00:00 8.8 8 Norte 31 Nordeste 0 -- -- 65
2019-11-08 21:00:00 9 8 Norte 28 Norte 0 -- -- 63
2019-11-08 20:00:00 9.4 6 Oeste 36 Oeste 0 -- -- 60
2019-11-08 19:00:00 9 4 Sudeste 24 Oeste 0 -- -- 64
2019-11-08 18:00:00 10.5 3 Norte 13 Norte 0 -- -- 56
2019-11-08 17:00:00 12.7 11 Noroeste 36 Norte 0 -- -- 47
2019-11-08 16:00:00 12.8 12 Noroeste 40 Norte 0 -- -- 50
2019-11-08 15:00:00 13.3 16 Norte 33 Norte 0 -- -- 50
2019-11-08 14:00:00 12.6 17 Norte 34 Norte 0 -- -- 53
2019-11-08 13:00:00 11.9 21 Noroeste 38 Oeste 0 -- -- 54
2019-11-08 12:00:00 10.9 19 Noroeste 38 Norte 0 -- -- 56
2019-11-08 11:00:00 9.9 18 Noroeste 38 Noroeste 0 -- -- 58
2019-11-08 10:00:00 8.7 15 Noroeste 31 Noroeste 0 -- -- 61
2019-11-08 09:00:00 7.4 9 Noroeste 19 Noroeste 0 -- -- 66
2019-11-08 08:00:00 6.1 5 Oeste 16 Noroeste 0 -- -- 71
2019-11-08 07:00:00 5.8 6 Oeste 21 Noroeste 0 -- -- 73
2019-11-08 06:00:00 6.2 6 Noroeste 32 Noroeste 0 -- -- 71
2019-11-08 05:00:00 6.7 7 Nordeste 22 Noroeste 0 -- -- 69
2019-11-08 04:00:00 6.7 14 Noroeste 46 Noroeste 0 -- -- 70
2019-11-08 03:00:00 6.7 19 Noroeste 38 Noroeste 0 -- -- 70
2019-11-08 02:00:00 6.6 13 Noroeste 32 Noroeste 0 -- -- 73
2019-11-08 01:00:00 6.6 6 Noroeste 19 Oeste 0 -- -- 76
2019-11-08 00:00:00 7.1 8 Noroeste 31 Oeste 0 -- -- 74